createdAt,value
2023-04-30T00:00:09.011Z,99.90
2023-04-30T00:05:32.489Z,99.90
2023-04-30T00:10:35.745Z,99.90
2023-04-30T00:15:39.069Z,99.90
2023-04-30T00:20:42.169Z,99.90
2023-04-30T00:25:45.579Z,99.90
2023-04-30T00:30:49.017Z,99.90
2023-04-30T00:35:52.323Z,99.90
2023-04-30T00:40:55.626Z,99.90
2023-04-30T00:46:04.239Z,99.90
2023-04-30T00:51:07.707Z,99.90
2023-04-30T00:56:13.258Z,99.90
2023-04-30T01:01:16.705Z,99.90
2023-04-30T01:06:20.191Z,99.90
2023-04-30T01:11:35.073Z,99.90
2023-04-30T01:16:53.564Z,99.90
2023-04-30T01:22:02.011Z,99.90
2023-04-30T01:27:20.385Z,99.90
2023-04-30T01:32:23.787Z,99.90
2023-04-30T01:37:45.532Z,99.90
2023-04-30T01:43:12.884Z,99.90
2023-04-30T01:48:34.608Z,99.90
2023-04-30T01:53:44.394Z,99.90
2023-04-30T01:58:50.437Z,99.90
2023-04-30T02:03:53.762Z,99.90
2023-04-30T02:09:02.995Z,99.90
2023-04-30T02:14:06.573Z,99.90
2023-04-30T02:19:10.081Z,99.90
2023-04-30T02:24:13.234Z,99.90
2023-04-30T02:29:17.735Z,99.90
2023-04-30T02:34:21.337Z,99.90
2023-04-30T02:39:24.620Z,99.90
2023-04-30T02:44:27.863Z,99.90
2023-04-30T02:49:31.109Z,99.90
2023-04-30T02:54:34.947Z,99.90
2023-04-30T02:59:39.194Z,99.90
2023-04-30T03:04:42.602Z,99.90
2023-04-30T03:09:46.941Z,99.90
2023-04-30T03:14:50.191Z,99.90
2023-04-30T03:19:53.801Z,99.90
2023-04-30T03:24:57.412Z,99.90
2023-04-30T03:30:00.723Z,99.90
2023-04-30T03:35:04.559Z,99.90
2023-04-30T03:40:08.953Z,99.90
2023-04-30T03:45:12.197Z,99.90
2023-04-30T03:50:15.734Z,99.90
2023-04-30T03:55:19.095Z,99.90
2023-04-30T04:00:22.324Z,99.90
2023-04-30T04:05:26.199Z,99.90
2023-04-30T04:10:29.738Z,99.90
2023-04-30T04:15:33.713Z,99.90
2023-04-30T04:20:36.884Z,99.90
2023-04-30T04:25:40.161Z,99.90
2023-04-30T04:30:43.653Z,99.90
2023-04-30T04:35:46.856Z,99.90
2023-04-30T04:40:54.673Z,99.90
2023-04-30T04:45:57.977Z,99.90
2023-04-30T04:51:01.633Z,99.90
2023-04-30T04:56:05.416Z,99.90
2023-04-30T05:01:09.593Z,99.90
2023-04-30T05:06:12.902Z,99.90
2023-04-30T05:11:17.097Z,99.90
2023-04-30T05:16:20.796Z,99.90
2023-04-30T05:21:24.106Z,99.90
2023-04-30T05:26:27.565Z,99.90
2023-04-30T05:31:32.785Z,99.90
2023-04-30T05:36:36.014Z,99.90
2023-04-30T05:41:39.287Z,99.90
2023-04-30T05:46:42.933Z,99.90
2023-04-30T05:51:46.495Z,99.90
2023-04-30T05:56:49.799Z,99.90
2023-04-30T06:01:53.369Z,99.90
2023-04-30T06:06:56.688Z,99.90
2023-04-30T06:12:00.051Z,99.90
2023-04-30T06:17:03.787Z,99.90
2023-04-30T06:22:16.181Z,99.90
2023-04-30T06:27:22.718Z,99.90
2023-04-30T06:32:26.427Z,99.90
2023-04-30T06:37:31.465Z,99.90
2023-04-30T06:42:39.617Z,99.90
2023-04-30T06:47:43.388Z,99.90
2023-04-30T06:52:46.644Z,99.90
2023-04-30T06:57:49.876Z,99.90
2023-04-30T07:02:53.556Z,99.90
2023-04-30T07:07:58.171Z,99.90
2023-04-30T07:13:03.453Z,99.90
2023-04-30T07:18:09.457Z,99.90
2023-04-30T07:23:13.240Z,99.90
2023-04-30T07:28:17.350Z,99.90
2023-04-30T07:33:20.973Z,99.90
2023-04-30T07:38:24.299Z,99.90
2023-04-30T07:43:27.429Z,99.90
2023-04-30T07:48:31.230Z,99.90
2023-04-30T07:53:34.801Z,99.90
2023-04-30T07:58:37.996Z,99.90
2023-04-30T08:03:41.296Z,99.90
2023-04-30T08:08:44.517Z,99.90
2023-04-30T08:13:48.306Z,96.40
2023-04-30T08:18:58.820Z,94.40
2023-04-30T08:24:02.785Z,90.00
2023-04-30T08:29:06.109Z,91.40
2023-04-30T08:34:09.373Z,89.30
2023-04-30T08:39:13.577Z,90.50
2023-04-30T08:44:23.957Z,90.50
2023-04-30T08:49:28.668Z,85.10
2023-04-30T08:54:33.185Z,87.60
2023-04-30T08:59:36.778Z,87.80
2023-04-30T09:04:39.924Z,84.00
2023-04-30T09:09:43.359Z,87.40
2023-04-30T09:15:19.215Z,88.20
2023-04-30T09:20:24.463Z,77.00
2023-04-30T09:25:40.228Z,77.30
2023-04-30T09:30:43.873Z,84.10
2023-04-30T09:35:47.311Z,79.00
2023-04-30T09:40:50.790Z,77.00
2023-04-30T09:45:54.184Z,75.40
2023-04-30T09:50:57.536Z,79.40
2023-04-30T09:56:07.580Z,76.80
2023-04-30T10:01:14.103Z,77.00
2023-04-30T10:06:19.849Z,73.70
2023-04-30T10:11:28.472Z,78.70
2023-04-30T10:16:41.323Z,77.10
2023-04-30T10:21:47.290Z,74.00
2023-04-30T10:26:50.917Z,75.00
2023-04-30T10:32:04.857Z,76.90
2023-04-30T10:37:25.126Z,74.40
2023-04-30T10:42:28.976Z,74.10
2023-04-30T10:47:32.763Z,71.70
2023-04-30T10:52:43.292Z,73.20
2023-04-30T10:57:48.785Z,75.40
2023-04-30T11:02:58.491Z,71.20
2023-04-30T11:08:04.918Z,73.10
2023-04-30T11:13:10.655Z,71.30
2023-04-30T11:18:15.030Z,73.80
2023-04-30T11:23:38.230Z,68.90
2023-04-30T11:28:55.322Z,67.90
2023-04-30T11:34:01.048Z,69.60
2023-04-30T11:39:08.349Z,68.10
2023-04-30T11:44:27.860Z,69.70
2023-04-30T11:49:33.111Z,70.40
2023-04-30T11:54:40.403Z,66.40
2023-04-30T11:59:44.107Z,66.40
2023-04-30T12:04:51.670Z,70.30
2023-04-30T12:10:01.839Z,65.10
2023-04-30T12:15:21.036Z,66.80
2023-04-30T12:20:29.698Z,64.90
2023-04-30T12:25:41.457Z,68.30
2023-04-30T12:30:47.821Z,63.00
2023-04-30T12:35:54.472Z,65.50
2023-04-30T12:41:00.684Z,69.90
2023-04-30T12:46:04.860Z,64.00
2023-04-30T12:51:12.997Z,69.00
2023-04-30T12:56:20.196Z,67.30
2023-04-30T13:01:25.893Z,62.30
2023-04-30T13:06:33.549Z,62.90
2023-04-30T13:11:38.152Z,62.80
2023-04-30T13:16:42.287Z,63.70
2023-04-30T13:21:46.326Z,62.50
2023-04-30T13:26:50.042Z,61.60
2023-04-30T13:31:57.063Z,59.40
2023-04-30T13:37:00.903Z,61.80
2023-04-30T13:42:05.594Z,61.70
2023-04-30T13:47:11.334Z,60.50
2023-04-30T13:52:15.850Z,59.60
2023-04-30T13:57:19.476Z,59.40
2023-04-30T14:02:23.623Z,58.10
2023-04-30T14:07:27.424Z,57.20
2023-04-30T14:12:32.501Z,58.80
2023-04-30T14:17:36.134Z,58.00
2023-04-30T14:22:43.097Z,56.60
2023-04-30T14:27:46.598Z,56.70
2023-04-30T14:32:52.848Z,55.50
2023-04-30T14:37:56.209Z,56.00
2023-04-30T14:42:59.524Z,53.10
2023-04-30T14:48:05.169Z,49.40
2023-04-30T14:53:09.883Z,46.50
2023-04-30T14:58:15.549Z,47.00
2023-04-30T15:03:19.349Z,46.20
2023-04-30T15:08:23.857Z,47.30
2023-04-30T15:13:28.858Z,46.70
2023-04-30T15:18:33.197Z,45.90
2023-04-30T15:23:39.697Z,43.60
2023-04-30T15:28:43.577Z,45.40
2023-04-30T15:33:46.866Z,43.10
2023-04-30T15:38:50.244Z,42.10
2023-04-30T15:43:53.922Z,41.50
2023-04-30T15:48:57.448Z,43.30
2023-04-30T15:54:02.778Z,43.40
2023-04-30T15:59:09.288Z,44.70
2023-04-30T16:04:12.893Z,45.20
2023-04-30T16:09:23.083Z,44.10
2023-04-30T16:14:26.303Z,44.90
2023-04-30T16:19:29.539Z,44.70
2023-04-30T16:24:32.830Z,45.30
2023-04-30T16:29:36.977Z,45.70
2023-04-30T16:34:44.905Z,45.10
2023-04-30T16:39:51.469Z,45.30
2023-04-30T16:44:56.181Z,46.30
2023-04-30T16:49:59.913Z,46.30
2023-04-30T16:55:05.395Z,46.60
2023-04-30T17:00:12.021Z,46.80
2023-04-30T17:05:16.486Z,45.30
2023-04-30T17:10:20.100Z,43.40
2023-04-30T17:15:24.012Z,43.80
2023-04-30T17:20:28.049Z,45.90
2023-04-30T17:25:34.009Z,46.70
2023-04-30T17:30:37.685Z,48.50
2023-04-30T17:35:42.602Z,48.80
2023-04-30T17:40:46.501Z,49.60
2023-04-30T17:45:55.179Z,51.40
2023-04-30T17:50:59.989Z,53.50
2023-04-30T17:56:06.584Z,55.50
2023-04-30T18:01:11.162Z,57.10
2023-04-30T18:06:15.416Z,59.10
2023-04-30T18:11:19.846Z,61.00
2023-04-30T18:16:24.566Z,61.40
2023-04-30T18:21:29.348Z,62.50
2023-04-30T18:26:33.144Z,65.00
2023-04-30T18:31:38.239Z,65.30
2023-04-30T18:36:44.628Z,65.60
2023-04-30T18:41:50.203Z,66.80
2023-04-30T18:46:57.225Z,67.50
2023-04-30T18:52:02.626Z,67.40
2023-04-30T18:57:12.002Z,68.00
2023-04-30T19:02:17.009Z,68.80
2023-04-30T19:07:24.039Z,68.70
2023-04-30T19:12:30.685Z,68.90
2023-04-30T19:17:35.860Z,68.50
2023-04-30T19:22:41.354Z,69.60
2023-04-30T19:27:46.339Z,69.40
2023-04-30T19:32:52.087Z,70.00
2023-04-30T19:37:58.151Z,70.70
2023-04-30T19:43:04.722Z,71.20
2023-04-30T19:48:15.750Z,71.20
2023-04-30T19:53:19.307Z,70.60
2023-04-30T19:58:25.116Z,70.50
2023-04-30T20:03:29.814Z,71.60
2023-04-30T20:08:34.088Z,71.70
2023-04-30T20:13:41.282Z,72.90
2023-04-30T20:18:49.244Z,73.60
2023-04-30T20:23:53.613Z,74.60
2023-04-30T20:28:58.028Z,75.30
2023-04-30T20:34:06.467Z,76.90
2023-04-30T20:39:12.279Z,79.40
2023-04-30T20:44:17.148Z,81.90
2023-04-30T20:49:21.026Z,80.70
2023-04-30T20:54:26.094Z,80.70
2023-04-30T20:59:31.024Z,82.30
2023-04-30T21:04:34.594Z,83.50
2023-04-30T21:09:38.708Z,84.10
2023-04-30T21:14:41.994Z,84.50
2023-04-30T21:19:45.727Z,85.70
2023-04-30T21:24:52.442Z,86.90
2023-04-30T21:29:56.375Z,87.00
2023-04-30T21:34:59.836Z,87.60
2023-04-30T21:40:04.045Z,88.50
2023-04-30T21:45:09.280Z,89.90
2023-04-30T21:50:12.802Z,90.30
2023-04-30T21:55:15.971Z,90.80
2023-04-30T22:00:19.918Z,92.70
2023-04-30T22:05:23.086Z,93.30
2023-04-30T22:10:26.313Z,94.20
2023-04-30T22:15:40.699Z,95.70
2023-04-30T22:20:51.444Z,97.00
2023-04-30T22:25:55.052Z,98.60
2023-04-30T22:31:00.051Z,99.80
2023-04-30T22:36:05.613Z,99.90
2023-04-30T22:41:09.125Z,99.90
2023-04-30T22:46:14.119Z,99.90
2023-04-30T22:51:18.067Z,99.90
2023-04-30T22:56:21.303Z,99.90
2023-04-30T23:01:24.570Z,99.90
2023-04-30T23:06:30.262Z,99.90
2023-04-30T23:11:33.614Z,99.90
2023-04-30T23:16:40.448Z,99.90
2023-04-30T23:21:43.713Z,99.90
2023-04-30T23:26:47.690Z,99.90
2023-04-30T23:31:51.449Z,99.90
2023-04-30T23:36:54.715Z,99.90
2023-04-30T23:41:57.908Z,99.90
2023-04-30T23:47:01.315Z,99.90
2023-04-30T23:52:05.388Z,99.90
2023-04-30T23:57:08.645Z,99.90
